Time;durP1;ratioP1;P1;durP2;ratioP2;P2;SDS_P1;SDS_P2;PMS_P1;PMS_P2;Temp;Humidity;BMP_temperature;BMP_pressure;BME280_temperature;BME280_humidity;BME280_pressure;Samples;Min_cycle;Max_cycle;Signal;HPM_P1;HPM_P2
2021/10/06 00:01:08;;;;;;;5.75;0.77;;;10.90;84.20;;;;;;5027114;28;20351;-63
2021/10/06 00:03:35;;;;;;;2.42;0.82;;;10.80;84.20;;;;;;5028817;28;20056;-61
2021/10/06 00:06:02;;;;;;;7.18;1.40;;;10.90;84.20;;;;;;5026560;28;20343;-61
2021/10/06 00:08:29;;;;;;;6.03;0.90;;;10.80;84.00;;;;;;5028858;28;20053;-61
2021/10/06 00:10:56;;;;;;;4.00;1.00;;;10.90;84.10;;;;;;5028795;28;20049;-62
2021/10/06 00:13:22;;;;;;;4.03;1.17;;;10.80;84.10;;;;;;5028598;28;20049;-61
2021/10/06 00:15:49;;;;;;;3.75;0.80;;;10.80;83.90;;;;;;5028734;28;20076;-62
2021/10/06 00:18:17;;;;;;;3.58;1.45;;;10.80;84.00;;;;;;5028458;28;20240;-62
2021/10/06 00:20:44;;;;;;;8.05;1.10;;;10.80;84.00;;;;;;5027699;28;20545;-61
2021/10/06 00:23:10;;;;;;;6.43;1.13;;;10.80;84.00;;;;;;5028666;28;20143;-61
2021/10/06 00:25:37;;;;;;;5.75;1.33;;;10.80;84.10;;;;;;5027658;28;20093;-61
2021/10/06 00:28:04;;;;;;;4.93;1.20;;;10.80;84.20;;;;;;5028390;28;20132;-62
2021/10/06 00:30:31;;;;;;;1.02;0.63;;;10.70;84.10;;;;;;5027374;28;20045;-61
2021/10/06 00:32:58;;;;;;;5.50;0.85;;;10.80;84.30;;;;;;5028292;28;20552;-61
2021/10/06 00:35:25;;;;;;;3.58;0.88;;;10.70;84.10;;;;;;5028260;28;20045;-62
2021/10/06 00:37:52;;;;;;;5.82;0.98;;;10.80;84.10;;;;;;5028204;28;20050;-61
2021/10/06 00:40:18;;;;;;;5.13;0.85;;;10.80;84.30;;;;;;5028372;28;20135;-62
2021/10/06 00:42:45;;;;;;;3.78;0.95;;;10.70;84.10;;;;;;5028105;28;20145;-63
2021/10/06 00:45:12;;;;;;;3.55;0.60;;;10.80;84.20;;;;;;5027616;28;20053;-63
2021/10/06 00:47:39;;;;;;;3.47;1.30;;;10.80;84.20;;;;;;5028546;28;20045;-61
2021/10/06 00:50:06;;;;;;;5.07;0.82;;;10.80;84.20;;;;;;5028106;28;20235;-62
2021/10/06 00:52:33;;;;;;;6.22;0.75;;;10.80;84.80;;;;;;5026693;28;20077;-62
2021/10/06 00:54:59;;;;;;;3.85;0.80;;;10.80;84.90;;;;;;5028029;28;20208;-62
2021/10/06 00:57:26;;;;;;;1.27;0.60;;;10.80;84.20;;;;;;5027706;28;20073;-61
2021/10/06 00:59:53;;;;;;;4.20;0.85;;;10.70;84.50;;;;;;5027689;28;20448;-62
2021/10/06 01:02:20;;;;;;;4.97;0.93;;;10.70;85.00;;;;;;5028413;28;20072;-61
2021/10/06 01:04:47;;;;;;;4.43;0.70;;;10.70;84.40;;;;;;5028011;28;20068;-61
2021/10/06 01:07:14;;;;;;;5.32;0.95;;;10.70;84.50;;;;;;5016145;28;20544;-61
2021/10/06 01:09:40;;;;;;;8.00;1.05;;;10.70;84.30;;;;;;5026038;28;20053;-61
2021/10/06 01:12:07;;;;;;;4.57;1.15;;;10.70;84.70;;;;;;5024766;28;20375;-61
2021/10/06 01:14:34;;;;;;;5.43;1.50;;;10.70;84.50;;;;;;5027717;28;20610;-61
2021/10/06 01:17:01;;;;;;;4.68;0.60;;;10.70;84.70;;;;;;5026008;28;20076;-61
2021/10/06 01:19:28;;;;;;;3.55;0.82;;;10.70;84.60;;;;;;5026531;28;20049;-60
2021/10/06 01:21:56;;;;;;;2.45;1.05;;;10.70;84.60;;;;;;5027606;28;20053;-61
2021/10/06 01:24:24;;;;;;;3.38;0.80;;;10.70;84.70;;;;;;5027478;28;20045;-62
2021/10/06 01:26:50;;;;;;;8.38;1.13;;;10.70;84.70;;;;;;5027654;28;20084;-62
2021/10/06 01:29:17;;;;;;;3.28;0.80;;;10.70;84.60;;;;;;5013352;28;20145;-62
2021/10/06 01:31:45;;;;;;;7.80;1.23;;;10.70;84.60;;;;;;5027937;28;20085;-60
2021/10/06 01:34:12;;;;;;;4.00;0.88;;;10.70;84.50;;;;;;5027706;28;20064;-61
2021/10/06 01:36:39;;;;;;;3.75;1.23;;;10.70;84.50;;;;;;5027405;28;20128;-62
2021/10/06 01:39:06;;;;;;;5.47;0.98;;;10.70;84.40;;;;;;5027265;28;20050;-62
2021/10/06 01:41:34;;;;;;;6.53;1.00;;;10.70;84.30;;;;;;5027289;28;20077;-62
2021/10/06 01:44:01;;;;;;;4.22;1.15;;;10.80;84.40;;;;;;5029549;28;20133;-62
2021/10/06 01:46:28;;;;;;;4.82;0.90;;;10.70;84.30;;;;;;5025898;28;20050;-62
2021/10/06 01:48:55;;;;;;;5.65;1.17;;;10.70;84.20;;;;;;5027366;28;20081;-62
2021/10/06 01:51:23;;;;;;;5.10;1.15;;;10.80;84.20;;;;;;5021323;28;20046;-62
2021/10/06 01:53:50;;;;;;;8.93;1.10;;;10.70;83.80;;;;;;5027507;28;20099;-62
2021/10/06 01:56:17;;;;;;;16.75;1.80;;;10.70;84.00;;;;;;5026764;28;20087;-62
2021/10/06 01:58:47;;;;;;;5.90;0.80;;;10.70;84.20;;;;;;5027497;28;20078;-61
2021/10/06 02:01:13;;;;;;;5.63;1.10;;;10.70;84.20;;;;;;5026982;28;20095;-61
2021/10/06 02:03:40;;;;;;;6.63;0.90;;;10.70;84.10;;;;;;5027464;28;20041;-62
2021/10/06 02:06:07;;;;;;;3.42;0.70;;;10.70;84.30;;;;;;5027113;28;20077;-61
2021/10/06 02:08:34;;;;;;;7.97;1.23;;;10.70;84.20;;;;;;5027307;28;20059;-62
2021/10/06 02:11:01;;;;;;;2.53;0.82;;;10.70;84.30;;;;;;5026879;28;20053;-61
2021/10/06 02:13:28;;;;;;;8.55;0.90;;;10.70;84.30;;;;;;5027273;28;20073;-62
2021/10/06 02:15:54;;;;;;;4.53;1.13;;;10.70;84.30;;;;;;5025819;28;20092;-61
2021/10/06 02:18:21;;;;;;;6.90;0.93;;;10.70;84.50;;;;;;5026927;28;20077;-61
2021/10/06 02:20:48;;;;;;;2.45;0.73;;;10.70;84.40;;;;;;5027079;28;20144;-61
2021/10/06 02:23:15;;;;;;;3.67;1.00;;;10.70;84.60;;;;;;5026916;28;20092;-61
2021/10/06 02:25:42;;;;;;;6.38;1.55;;;10.60;84.60;;;;;;5026950;28;20100;-60
2021/10/06 02:28:08;;;;;;;5.50;1.58;;;10.60;84.80;;;;;;5027123;28;20126;-61
2021/10/06 02:30:35;;;;;;;4.35;0.82;;;10.60;84.80;;;;;;5029843;28;20500;-62
2021/10/06 02:33:02;;;;;;;10.93;1.17;;;10.60;84.90;;;;;;5030354;28;20115;-61
2021/10/06 02:35:29;;;;;;;1.77;0.60;;;10.60;84.90;;;;;;5029787;28;20167;-61
2021/10/06 02:37:56;;;;;;;1.63;0.95;;;10.60;84.90;;;;;;5030201;28;20048;-61
2021/10/06 02:40:22;;;;;;;6.47;1.38;;;10.60;84.90;;;;;;5029573;28;20183;-61
2021/10/06 02:42:49;;;;;;;3.08;0.90;;;10.60;85.10;;;;;;5030373;28;20555;-61
2021/10/06 02:45:17;;;;;;;4.22;1.33;;;10.60;85.10;;;;;;5013403;28;20352;-61
2021/10/06 02:47:44;;;;;;;4.50;0.98;;;10.60;85.10;;;;;;5028827;28;20089;-61
2021/10/06 02:50:12;;;;;;;5.47;0.80;;;10.50;85.30;;;;;;5030521;28;20479;-61
2021/10/06 02:52:39;;;;;;;6.55;0.77;;;10.50;85.60;;;;;;5030285;28;20061;-61
2021/10/06 02:55:06;;;;;;;10.18;1.50;;;10.50;85.50;;;;;;5030222;28;20150;-61
2021/10/06 02:57:36;;;;;;;7.43;1.02;;;10.50;85.40;;;;;;5030188;28;20045;-61
2021/10/06 03:00:08;;;;;;;3.65;0.80;;;10.50;85.50;;;;;;5028804;28;20081;-63
2021/10/06 03:02:36;;;;;;;2.67;1.00;;;10.50;85.60;;;;;;5030124;28;20106;-61
2021/10/06 03:05:03;;;;;;;5.40;0.93;;;10.50;86.00;;;;;;5030519;28;20081;-61
2021/10/06 03:07:30;;;;;;;4.88;1.02;;;10.50;86.10;;;;;;5030307;28;20046;-61
2021/10/06 03:09:56;;;;;;;3.08;0.75;;;10.40;86.30;;;;;;5030417;28;20088;-61
2021/10/06 03:12:23;;;;;;;6.88;1.00;;;10.40;86.30;;;;;;5030000;28;20041;-61
2021/10/06 03:14:50;;;;;;;4.85;1.10;;;10.40;86.60;;;;;;5029594;28;20099;-61
2021/10/06 03:17:17;;;;;;;7.03;1.17;;;10.40;86.70;;;;;;5029571;28;20046;-61
2021/10/06 03:19:44;;;;;;;8.77;1.13;;;10.40;86.60;;;;;;5029785;28;20113;-62
2021/10/06 03:22:11;;;;;;;7.47;1.65;;;10.40;86.80;;;;;;5029804;28;20160;-62
2021/10/06 03:24:37;;;;;;;6.32;1.42;;;10.40;86.90;;;;;;5029447;28;20073;-62
2021/10/06 03:27:04;;;;;;;12.48;1.70;;;10.40;87.10;;;;;;5029881;28;20148;-61
2021/10/06 03:29:31;;;;;;;8.65;1.52;;;10.40;86.60;;;;;;5029582;28;20045;-62
2021/10/06 03:32:00;;;;;;;3.58;0.88;;;10.40;86.90;;;;;;5029813;28;20124;-60
2021/10/06 03:34:26;;;;;;;4.50;1.05;;;10.40;87.00;;;;;;5029175;28;20467;-60
2021/10/06 03:36:53;;;;;;;5.55;1.20;;;10.40;87.00;;;;;;5029683;28;20055;-63
2021/10/06 03:39:20;;;;;;;3.90;2.70;;;10.40;86.90;;;;;;5029550;28;20136;-62
2021/10/06 03:41:47;;;;;;;8.05;1.20;;;10.40;87.10;;;;;;5029136;28;20077;-62
2021/10/06 03:44:13;;;;;;;5.63;1.00;;;10.50;86.90;;;;;;5029257;28;20045;-61
2021/10/06 03:46:40;;;;;;;4.55;0.70;;;10.40;86.70;;;;;;5029124;28;20099;-60
2021/10/06 03:49:07;;;;;;;5.45;1.60;;;10.40;86.70;;;;;;5029146;28;20065;-61
2021/10/06 03:51:34;;;;;;;7.15;0.65;;;10.40;86.80;;;;;;5029349;28;20088;-61
2021/10/06 03:54:00;;;;;;;3.08;1.00;;;10.40;86.70;;;;;;5028950;28;20276;-60
2021/10/06 03:56:27;;;;;;;5.05;1.00;;;10.40;86.80;;;;;;5029054;28;20393;-62
2021/10/06 03:58:54;;;;;;;5.10;0.80;;;10.40;86.70;;;;;;5028968;28;20046;-61
2021/10/06 04:01:20;;;;;;;3.40;0.90;;;10.40;86.70;;;;;;5027013;28;20057;-61
2021/10/06 04:03:48;;;;;;;7.32;0.93;;;10.40;86.60;;;;;;5013032;28;20054;-62
2021/10/06 04:06:14;;;;;;;6.65;0.98;;;10.40;86.70;;;;;;5029007;28;20123;-61
2021/10/06 04:08:41;;;;;;;9.40;1.10;;;10.30;86.90;;;;;;5029093;28;20139;-61
2021/10/06 04:11:08;;;;;;;8.43;2.05;;;10.30;86.90;;;;;;5028107;28;20107;-61
2021/10/06 04:13:35;;;;;;;3.25;0.95;;;10.40;86.80;;;;;;5028512;28;20070;-61
2021/10/06 04:16:05;;;;;;;5.13;1.00;;;10.30;86.90;;;;;;5025809;28;20049;-62
2021/10/06 04:18:32;;;;;;;10.05;2.80;;;10.30;86.60;;;;;;5027136;28;20099;-62
2021/10/06 04:20:58;;;;;;;10.20;1.38;;;10.30;86.80;;;;;;5028049;28;20077;-61
2021/10/06 04:23:25;;;;;;;9.45;0.88;;;10.40;86.50;;;;;;5028835;28;20053;-61
2021/10/06 04:25:52;;;;;;;6.88;1.80;;;10.40;86.50;;;;;;5028069;28;20095;-61
2021/10/06 04:28:18;;;;;;;6.93;0.93;;;10.40;86.50;;;;;;5027898;28;20053;-61
2021/10/06 04:30:45;;;;;;;7.20;1.00;;;10.30;87.10;;;;;;5028087;28;20072;-62
2021/10/06 04:33:12;;;;;;;3.60;1.27;;;10.30;86.50;;;;;;5027798;28;20487;-61
2021/10/06 04:35:39;;;;;;;9.52;1.35;;;10.30;86.50;;;;;;5028037;28;20076;-61
2021/10/06 04:38:05;;;;;;;7.28;1.50;;;10.30;86.50;;;;;;5027967;28;20478;-61
2021/10/06 04:40:32;;;;;;;5.28;1.05;;;10.30;86.60;;;;;;5027926;28;20480;-61
2021/10/06 04:42:59;;;;;;;11.30;1.70;;;10.20;86.80;;;;;;5021090;28;20547;-61
2021/10/06 04:45:26;;;;;;;7.10;1.05;;;10.20;86.80;;;;;;5026465;28;20045;-61
2021/10/06 04:47:53;;;;;;;8.25;1.10;;;10.20;86.80;;;;;;5027749;28;20042;-61
2021/10/06 04:50:19;;;;;;;6.43;1.50;;;10.10;86.80;;;;;;5027884;28;20077;-61
2021/10/06 04:52:46;;;;;;;6.15;0.98;;;10.10;87.20;;;;;;5025680;28;20081;-62
2021/10/06 04:55:13;;;;;;;9.38;1.58;;;10.10;87.10;;;;;;5027910;28;20465;-60
2021/10/06 04:57:40;;;;;;;6.43;0.93;;;10.00;87.10;;;;;;5027490;28;20509;-61
2021/10/06 05:00:07;;;;;;;4.80;0.90;;;10.10;87.20;;;;;;5026707;28;20496;-61
2021/10/06 05:02:33;;;;;;;8.70;1.42;;;10.10;87.10;;;;;;5026977;28;20103;-61
2021/10/06 05:05:00;;;;;;;1.50;0.90;;;10.10;87.10;;;;;;5027895;28;20096;-61
2021/10/06 05:07:27;;;;;;;3.13;0.60;;;10.10;87.20;;;;;;5027654;28;20057;-61
2021/10/06 05:09:54;;;;;;;1.27;0.75;;;10.10;87.20;;;;;;5024191;28;20092;-61
2021/10/06 05:12:20;;;;;;;12.55;3.05;;;10.10;87.40;;;;;;5027906;28;20053;-62
2021/10/06 05:14:47;;;;;;;11.00;2.80;;;10.10;87.60;;;;;;5028248;28;20053;-63
2021/10/06 05:17:14;;;;;;;8.70;1.25;;;10.10;87.50;;;;;;5027948;28;20085;-61
2021/10/06 05:19:41;;;;;;;3.13;0.90;;;10.10;87.70;;;;;;5027969;28;20125;-61
2021/10/06 05:22:10;;;;;;;5.50;1.05;;;10.00;87.60;;;;;;5027522;28;20461;-61
2021/10/06 05:24:37;;;;;;;6.30;0.63;;;10.00;87.60;;;;;;5026506;28;20107;-61
2021/10/06 05:27:03;;;;;;;5.90;1.15;;;10.00;87.70;;;;;;5027237;28;20037;-62
2021/10/06 05:29:35;;;;;;;7.93;1.27;;;10.00;87.60;;;;;;5021421;28;20053;-61
2021/10/06 05:32:04;;;;;;;3.83;1.25;;;10.00;87.70;;;;;;5026109;28;20144;-61
2021/10/06 05:34:32;;;;;;;8.05;1.25;;;10.00;87.60;;;;;;5026723;28;20061;-61
2021/10/06 05:36:58;;;;;;;5.50;1.10;;;10.00;87.70;;;;;;5026833;28;20091;-62
2021/10/06 05:39:26;;;;;;;4.55;1.15;;;10.00;87.90;;;;;;5026053;28;20045;-65
2021/10/06 05:41:52;;;;;;;11.98;1.00;;;10.00;88.10;;;;;;5026581;28;20088;-62
2021/10/06 05:44:19;;;;;;;6.68;1.10;;;10.00;88.10;;;;;;5025504;28;20459;-62
2021/10/06 05:46:46;;;;;;;11.02;1.40;;;9.90;88.90;;;;;;5026053;28;20088;-62
2021/10/06 05:49:13;;;;;;;4.97;1.40;;;9.90;88.40;;;;;;5023920;28;20309;-61
2021/10/06 05:51:40;;;;;;;8.50;1.20;;;10.00;88.40;;;;;;5025915;28;20296;-61
2021/10/06 05:54:07;;;;;;;6.03;1.00;;;9.90;88.10;;;;;;5025727;28;20111;-61
2021/10/06 05:56:34;;;;;;;5.60;1.23;;;9.90;88.60;;;;;;5027134;28;20088;-61
2021/10/06 05:59:01;;;;;;;8.77;1.42;;;9.90;88.30;;;;;;5027064;28;20072;-63
2021/10/06 06:01:28;;;;;;;9.55;1.45;;;10.00;88.50;;;;;;5026481;28;20046;-59
2021/10/06 06:03:55;;;;;;;7.05;1.38;;;9.90;88.60;;;;;;5027212;28;21143;-60
2021/10/06 06:06:22;;;;;;;7.65;1.27;;;9.90;88.50;;;;;;5029923;28;20045;-61
2021/10/06 06:08:49;;;;;;;9.10;0.80;;;9.90;88.40;;;;;;5029171;28;20049;-61
2021/10/06 06:11:16;;;;;;;8.95;1.20;;;10.00;88.70;;;;;;5030190;28;20554;-61
2021/10/06 06:13:42;;;;;;;7.18;1.42;;;9.90;88.50;;;;;;5029884;28;20045;-62
2021/10/06 06:16:09;;;;;;;4.22;0.80;;;9.90;88.40;;;;;;5030219;28;20041;-62
2021/10/06 06:18:36;;;;;;;8.43;1.63;;;9.90;88.40;;;;;;5029020;28;20049;-62
2021/10/06 06:21:03;;;;;;;8.32;1.10;;;9.90;88.30;;;;;;5030504;28;20038;-62
2021/10/06 06:23:31;;;;;;;6.47;1.23;;;10.00;88.40;;;;;;5030386;28;20516;-59
2021/10/06 06:25:58;;;;;;;7.32;1.00;;;10.00;88.50;;;;;;5028955;28;20141;-60
2021/10/06 06:28:26;;;;;;;8.32;1.50;;;10.00;88.20;;;;;;5030063;28;20075;-61
2021/10/06 06:30:53;;;;;;;12.35;1.25;;;10.00;88.10;;;;;;5030158;28;20444;-65
2021/10/06 06:33:20;;;;;;;8.75;2.05;;;10.00;88.20;;;;;;5029022;28;20060;-61
2021/10/06 06:35:46;;;;;;;6.70;1.27;;;10.00;88.20;;;;;;5028690;28;20073;-60
2021/10/06 06:38:13;;;;;;;6.75;1.27;;;10.00;88.10;;;;;;5029301;28;20084;-61
2021/10/06 06:40:43;;;;;;;2.40;0.77;;;10.00;88.30;;;;;;5028525;28;20050;-60
2021/10/06 06:43:11;;;;;;;5.55;1.27;;;10.00;88.00;;;;;;5029547;28;20088;-60
2021/10/06 06:45:37;;;;;;;4.57;0.88;;;10.00;88.00;;;;;;5028713;28;20054;-61
2021/10/06 06:48:04;;;;;;;6.47;1.15;;;10.10;87.90;;;;;;5029408;28;20049;-59
2021/10/06 06:50:43;;;;;;;10.43;1.83;;;10.10;87.90;;;;;;5029928;28;20044;-59
2021/10/06 06:53:10;;;;;;;3.92;1.00;;;10.10;88.00;;;;;;5031903;28;20121;-59
2021/10/06 06:55:37;;;;;;;2.47;0.90;;;10.10;87.90;;;;;;5022981;28;20099;-59
2021/10/06 06:58:04;;;;;;;5.70;1.25;;;10.20;87.70;;;;;;5033886;28;20053;-59
2021/10/06 07:00:30;;;;;;;3.05;1.02;;;10.20;87.70;;;;;;5028432;28;20313;-60
2021/10/06 07:02:57;;;;;;;7.88;1.05;;;10.20;87.70;;;;;;5027568;28;20065;-61
2021/10/06 07:05:28;;;;;;;12.30;1.25;;;10.20;87.50;;;;;;5026904;28;20508;-61
2021/10/06 07:07:55;;;;;;;8.50;1.20;;;10.30;87.60;;;;;;5027094;28;20053;-61
2021/10/06 07:10:22;;;;;;;4.07;0.85;;;10.30;87.50;;;;;;5026156;28;20100;-61
2021/10/06 07:12:49;;;;;;;2.00;0.80;;;10.30;87.20;;;;;;5029030;28;20072;-60
2021/10/06 07:15:16;;;;;;;7.13;1.23;;;10.30;87.20;;;;;;5030731;28;20045;-59
2021/10/06 07:17:43;;;;;;;5.70;1.13;;;10.40;87.40;;;;;;5028933;28;20092;-61
2021/10/06 07:20:10;;;;;;;9.77;1.65;;;10.40;87.40;;;;;;5028994;28;20481;-60
2021/10/06 07:22:37;;;;;;;13.15;2.55;;;10.40;87.30;;;;;;5027456;28;20132;-61
2021/10/06 07:25:04;;;;;;;9.55;1.60;;;10.40;87.30;;;;;;5011392;28;20136;-60
2021/10/06 07:27:31;;;;;;;6.55;1.20;;;10.40;87.00;;;;;;5028765;28;20488;-64
2021/10/06 07:30:00;;;;;;;13.05;1.52;;;10.50;87.10;;;;;;5027676;28;20099;-64
2021/10/06 07:32:26;;;;;;;2.97;1.00;;;10.60;87.30;;;;;;5030915;28;20254;-60
2021/10/06 07:34:53;;;;;;;6.63;0.90;;;10.60;86.90;;;;;;5028789;28;20179;-61
2021/10/06 07:37:20;;;;;;;9.27;1.23;;;10.60;86.80;;;;;;5028060;28;20045;-60
2021/10/06 07:39:47;;;;;;;10.13;1.25;;;10.70;86.90;;;;;;5028804;28;20052;-63
2021/10/06 07:42:15;;;;;;;10.23;3.05;;;10.70;86.30;;;;;;5029910;28;20132;-60
2021/10/06 07:44:43;;;;;;;4.72;1.88;;;10.80;85.70;;;;;;5027763;28;20077;-61
2021/10/06 07:47:10;;;;;;;10.35;0.98;;;10.80;85.30;;;;;;5036884;28;20050;-61
2021/10/06 07:49:37;;;;;;;8.55;1.23;;;10.90;85.30;;;;;;5028136;28;20096;-61
2021/10/06 07:52:03;;;;;;;5.95;1.10;;;10.90;85.60;;;;;;5015368;28;20072;-60
2021/10/06 07:54:30;;;;;;;6.40;0.88;;;11.00;85.80;;;;;;5026755;28;20137;-62
2021/10/06 07:56:57;;;;;;;7.32;1.42;;;11.00;84.70;;;;;;5027935;28;20111;-61
2021/10/06 07:59:24;;;;;;;3.75;1.17;;;11.10;85.50;;;;;;5028128;28;20080;-60
2021/10/06 08:01:51;;;;;;;3.70;1.85;;;11.10;84.30;;;;;;5027518;28;20053;-60
2021/10/06 08:04:18;;;;;;;3.38;1.02;;;11.20;84.80;;;;;;5027840;28;20194;-60
2021/10/06 08:18:32;;;;;;;4.20;0.98;;;11.40;82.60;;;;;;4927449;28;20138;-58
2021/10/06 08:20:59;;;;;;;3.78;0.70;;;11.40;83.00;;;;;;4938642;28;20065;-58
2021/10/06 08:23:28;;;;;;;3.58;0.73;;;11.50;81.00;;;;;;4951356;28;20055;-59
2021/10/06 08:25:55;;;;;;;3.33;1.02;;;11.60;80.80;;;;;;4941674;28;20055;-58
2021/10/06 08:28:22;;;;;;;8.95;1.27;;;11.60;81.70;;;;;;4955394;28;20058;-59
2021/10/06 08:30:49;;;;;;;5.55;0.90;;;11.70;81.20;;;;;;4943642;29;20055;-59
2021/10/06 08:33:16;;;;;;;3.78;1.05;;;11.70;81.40;;;;;;4950705;29;20125;-59
2021/10/06 08:35:43;;;;;;;4.07;1.00;;;11.70;81.70;;;;;;4947813;28;20075;-59
2021/10/06 08:38:10;;;;;;;5.68;1.25;;;11.80;80.70;;;;;;4937590;29;20510;-60
2021/10/06 08:40:37;;;;;;;6.63;1.35;;;11.90;80.40;;;;;;4937372;29;20047;-59
2021/10/06 08:43:05;;;;;;;5.50;1.33;;;12.00;79.60;;;;;;4946970;28;20043;-59
2021/10/06 08:45:31;;;;;;;8.20;0.82;;;12.10;78.90;;;;;;4948341;28;20055;-64
2021/10/06 08:48:03;;;;;;;5.57;1.40;;;12.20;79.60;;;;;;4955079;28;20078;-59
2021/10/06 08:50:29;;;;;;;2.85;1.33;;;12.40;78.70;;;;;;4968065;28;20047;-59
2021/10/06 08:52:56;;;;;;;8.43;1.42;;;12.50;77.80;;;;;;4938850;29;20054;-59
2021/10/06 08:55:29;;;;;;;5.70;1.00;;;12.60;80.30;;;;;;4940570;29;20087;-59
2021/10/06 08:58:00;;;;;;;9.10;1.60;;;12.60;79.10;;;;;;4935879;29;20074;-59
2021/10/06 09:00:28;;;;;;;6.68;1.52;;;12.80;77.10;;;;;;4955420;28;20080;-59
2021/10/06 09:02:54;;;;;;;6.28;1.23;;;12.70;77.10;;;;;;4969318;28;20051;-59
2021/10/06 09:05:22;;;;;;;12.73;2.63;;;12.70;77.40;;;;;;4977865;28;20047;-59
2021/10/06 09:08:05;;;;;;;1.95;0.90;;;12.70;77.90;;;;;;4960988;29;20062;-61
2021/10/06 09:10:34;;;;;;;7.32;1.48;;;12.70;75.00;;;;;;4964513;28;20038;-58
2021/10/06 09:13:05;;;;;;;2.50;0.98;;;12.70;78.00;;;;;;4964045;28;20048;-60
2021/10/06 09:15:45;;;;;;;11.70;1.40;;;12.70;76.50;;;;;;4957155;29;20059;-60
2021/10/06 09:18:13;;;;;;;7.70;1.25;;;12.80;75.20;;;;;;4985320;28;20066;-60
2021/10/06 09:20:41;;;;;;;6.63;0.95;;;12.90;74.50;;;;;;4974265;28;20054;-61
2021/10/06 09:23:09;;;;;;;6.20;1.48;;;12.90;76.90;;;;;;4995209;28;20038;-61
2021/10/06 09:25:50;;;;;;;5.10;1.13;;;12.90;74.80;;;;;;4999874;28;20721;-64
2021/10/06 09:28:18;;;;;;;7.63;1.52;;;12.80;73.60;;;;;;4995841;28;20059;-60
2021/10/06 09:30:45;;;;;;;7.65;1.30;;;12.90;74.20;;;;;;4984053;28;20051;-60
2021/10/06 09:33:12;;;;;;;4.15;1.52;;;13.00;75.30;;;;;;4995394;28;20063;-60
2021/10/06 09:35:44;;;;;;;4.64;1.36;;;13.00;74.30;;;;;;4836202;28;10001075;-60
2021/10/06 09:38:11;;;;;;;7.43;1.70;;;13.10;74.80;;;;;;4971644;28;20266;-61
2021/10/06 09:40:38;;;;;;;6.13;1.27;;;13.10;75.10;;;;;;4981702;28;20046;-59
2021/10/06 09:43:05;;;;;;;8.18;2.22;;;13.10;73.60;;;;;;4985320;28;20097;-60
2021/10/06 09:45:41;;;;;;;10.52;1.50;;;13.20;74.40;;;;;;4980617;28;20042;-61
2021/10/06 09:48:17;;;;;;;7.28;1.50;;;13.20;72.80;;;;;;4982096;28;20050;-60
2021/10/06 09:50:48;;;;;;;11.05;1.90;;;13.20;73.10;;;;;;4978781;28;20105;-59
2021/10/06 09:53:19;;;;;;;8.68;1.45;;;13.10;72.20;;;;;;4983099;28;20057;-60
2021/10/06 09:55:49;;;;;;;8.95;0.95;;;13.20;73.00;;;;;;4981997;28;20092;-61
2021/10/06 09:58:16;;;;;;;3.60;1.20;;;13.30;73.50;;;;;;4968155;28;20816;-62
2021/10/06 10:00:44;;;;;;;5.25;1.10;;;13.30;73.30;;;;;;4986500;28;20046;-59
2021/10/06 10:03:12;;;;;;;5.50;1.10;;;13.30;72.60;;;;;;4984454;28;20050;-61
2021/10/06 10:05:40;;;;;;;9.02;1.77;;;13.30;72.80;;;;;;4985449;28;20097;-60
2021/10/06 10:08:08;;;;;;;8.40;1.98;;;13.40;71.90;;;;;;4957525;28;20047;-60
2021/10/06 10:10:36;;;;;;;8.07;1.25;;;13.40;71.70;;;;;;4970237;28;20077;-59
2021/10/06 10:13:02;;;;;;;7.60;1.25;;;13.40;70.90;;;;;;4988514;28;20039;-60
2021/10/06 10:15:29;;;;;;;10.85;2.17;;;13.50;73.40;;;;;;4998856;28;20042;-61
2021/10/06 10:17:59;;;;;;;7.32;2.15;;;13.60;72.80;;;;;;4985625;28;20080;-60
2021/10/06 10:20:28;;;;;;;11.63;1.52;;;13.60;70.60;;;;;;4995009;28;20046;-60
2021/10/06 10:23:20;;;;;;;4.65;1.13;;;13.70;72.10;;;;;;5000635;28;20093;-60
2021/10/06 10:25:47;;;;;;;10.90;1.35;;;13.70;69.70;;;;;;4982836;28;20097;-60
2021/10/06 10:28:15;;;;;;;11.85;1.60;;;13.70;71.20;;;;;;4980196;28;20074;-60
2021/10/06 10:30:54;;;;;;;7.07;0.82;;;13.80;71.20;;;;;;4980061;28;20038;-58
2021/10/06 10:33:41;;;;;;;6.07;1.35;;;13.80;68.70;;;;;;4977952;28;20050;-61
2021/10/06 10:36:29;;;;;;;6.97;1.23;;;13.70;68.70;;;;;;4984994;28;20043;-60
2021/10/06 10:38:56;;;;;;;7.80;1.20;;;13.70;69.80;;;;;;4975325;28;20078;-60
2021/10/06 10:41:44;;;;;;;6.88;1.38;;;13.90;69.40;;;;;;4967301;28;20504;-60
2021/10/06 10:44:11;;;;;;;6.55;1.90;;;14.00;68.80;;;;;;4974161;28;20132;-60
2021/10/06 10:46:57;;;;;;;4.35;1.35;;;14.10;69.10;;;;;;4977817;28;20082;-60
2021/10/06 10:49:24;;;;;;;9.70;1.05;;;14.10;68.40;;;;;;4974842;28;20477;-59
2021/10/06 10:51:58;;;;;;;8.30;1.40;;;14.20;69.70;;;;;;4964715;28;20051;-59
2021/10/06 10:54:40;;;;;;;9.40;1.08;;;14.20;66.50;;;;;;4978317;28;20047;-60
2021/10/06 10:57:21;;;;;;;5.95;1.40;;;14.20;67.60;;;;;;4967181;28;20075;-61
2021/10/06 10:59:49;;;;;;;7.10;1.30;;;14.30;66.10;;;;;;4978412;28;20082;-59
2021/10/06 11:02:20;;;;;;;12.30;1.38;;;14.30;68.40;;;;;;4990683;28;20118;-59
2021/10/06 11:04:55;;;;;;;11.60;2.30;;;14.40;68.00;;;;;;4985678;28;20086;-59
2021/10/06 11:07:21;;;;;;;4.85;1.08;;;14.50;67.90;;;;;;4961460;28;20074;-60
2021/10/06 11:09:50;;;;;;;6.88;1.42;;;14.50;67.80;;;;;;4976978;28;20085;-59
2021/10/06 11:12:18;;;;;;;7.22;1.05;;;14.50;66.50;;;;;;4972429;28;20039;-60
2021/10/06 11:14:46;;;;;;;5.78;1.00;;;14.50;66.50;;;;;;4982515;28;20058;-59
2021/10/06 11:17:18;;;;;;;6.28;1.10;;;14.50;66.20;;;;;;4973134;28;20129;-59
2021/10/06 11:19:49;;;;;;;4.38;1.17;;;14.50;67.00;;;;;;4975805;28;20113;-59
2021/10/06 11:22:22;;;;;;;8.15;1.35;;;14.60;67.30;;;;;;4982590;28;20107;-60
2021/10/06 11:25:02;;;;;;;14.30;2.05;;;14.70;67.20;;;;;;4975796;28;20066;-59
2021/10/06 11:27:49;;;;;;;6.93;1.60;;;14.80;67.70;;;;;;4986268;28;20133;-59
2021/10/06 11:30:16;;;;;;;10.20;1.67;;;14.90;66.40;;;;;;4985116;28;20050;-59
2021/10/06 11:32:50;;;;;;;8.40;1.80;;;15.00;65.10;;;;;;4980124;28;20149;-59
2021/10/06 11:35:16;;;;;;;8.55;1.25;;;15.00;64.40;;;;;;4985729;28;20457;-59
2021/10/06 11:37:43;;;;;;;2.70;0.98;;;15.10;65.80;;;;;;4974356;28;20153;-58
2021/10/06 11:40:11;;;;;;;5.85;1.60;;;15.20;66.00;;;;;;4632857;28;10000588;-59
2021/10/06 11:42:41;;;;;;;5.07;1.30;;;15.20;63.90;;;;;;4980123;28;20093;-61
2021/10/06 11:45:19;;;;;;;9.10;1.70;;;15.20;65.50;;;;;;4972146;28;20165;-61
2021/10/06 11:47:47;;;;;;;10.77;2.50;;;15.30;64.20;;;;;;4966647;28;20130;-60
2021/10/06 11:50:14;;;;;;;23.65;2.75;;;15.40;67.20;;;;;;4981313;28;20078;-59
2021/10/06 11:52:40;;;;;;;13.38;1.80;;;15.40;63.70;;;;;;4975224;28;20061;-60
2021/10/06 11:55:08;;;;;;;11.32;1.75;;;15.50;65.80;;;;;;4965708;28;20042;-60
2021/10/06 11:57:34;;;;;;;7.47;1.45;;;15.50;64.30;;;;;;4983929;28;20097;-60
2021/10/06 12:00:02;;;;;;;6.28;1.05;;;15.50;64.60;;;;;;4974408;28;20124;-60
2021/10/06 12:02:28;;;;;;;8.38;1.10;;;15.60;65.70;;;;;;4971872;28;20101;-60
2021/10/06 12:04:56;;;;;;;7.22;1.60;;;15.50;62.90;;;;;;4978026;28;20534;-60
2021/10/06 12:07:24;;;;;;;7.03;2.10;;;15.60;64.50;;;;;;4980446;28;20505;-60
2021/10/06 12:09:53;;;;;;;6.90;1.42;;;15.70;65.70;;;;;;4978452;28;20094;-61
2021/10/06 12:12:39;;;;;;;7.97;1.30;;;15.80;61.90;;;;;;4976428;28;20536;-59
2021/10/06 12:15:14;;;;;;;8.15;1.15;;;15.70;61.00;;;;;;4969313;28;20101;-60
2021/10/06 12:17:45;;;;;;;9.60;1.55;;;15.70;62.00;;;;;;4970267;28;20078;-60
2021/10/06 12:20:14;;;;;;;4.88;1.50;;;15.70;62.20;;;;;;4963667;28;20797;-60
2021/10/06 12:22:45;;;;;;;8.10;1.50;;;15.80;63.40;;;;;;4967116;28;20067;-59
2021/10/06 12:25:17;;;;;;;6.32;1.40;;;15.80;60.80;;;;;;4975602;28;20524;-60
2021/10/06 12:27:46;;;;;;;5.40;1.17;;;15.90;64.00;;;;;;4967008;28;20112;-59
2021/10/06 12:30:15;;;;;;;7.95;1.10;;;15.90;60.70;;;;;;4958717;28;20568;-59
2021/10/06 12:32:44;;;;;;;8.25;1.02;;;15.80;62.00;;;;;;4980253;28;20153;-60
2021/10/06 12:35:19;;;;;;;3.45;1.27;;;15.80;58.10;;;;;;4964382;28;20085;-59
2021/10/06 12:37:49;;;;;;;4.40;0.80;;;15.80;59.00;;;;;;4970641;28;20134;-60
2021/10/06 12:40:45;;;;;;;11.93;1.20;;;15.80;58.20;;;;;;4984430;28;20564;-59
2021/10/06 12:43:14;;;;;;;9.95;1.25;;;15.80;58.80;;;;;;4973395;28;20101;-61
2021/10/06 12:46:02;;;;;;;7.22;1.35;;;15.80;60.90;;;;;;4976594;28;20118;-60
2021/10/06 12:48:52;;;;;;;4.38;1.10;;;16.00;59.00;;;;;;4967266;28;20097;-59
2021/10/06 12:51:25;;;;;;;8.70;1.50;;;16.10;59.00;;;;;;4954286;28;20580;-60
2021/10/06 12:53:58;;;;;;;4.88;0.93;;;16.10;58.70;;;;;;4971687;28;20078;-59
2021/10/06 12:56:35;;;;;;;6.78;1.10;;;16.10;58.90;;;;;;4974186;28;20078;-60
2021/10/06 12:59:06;;;;;;;10.40;2.58;;;16.20;58.70;;;;;;4979058;28;20105;-59
2021/10/06 13:01:33;;;;;;;6.55;1.20;;;16.20;57.50;;;;;;4976761;28;20116;-60
2021/10/06 13:04:01;;;;;;;5.55;1.13;;;16.20;59.60;;;;;;4972761;28;20089;-60